sensor_id;sensor_type;location;lat;lon;timestamp;pressure;altitude;pressure_sealevel;temperature;humidity
6530;BME280;3298;42.688;23.366;2023-03-03T00:00:32;51858.31;;;-145.06;87.08
6530;BME280;3298;42.688;23.366;2023-03-03T00:03:00;51889.00;;;-145.06;87.69
6530;BME280;3298;42.688;23.366;2023-03-03T00:05:32;51864.47;;;-145.06;86.55
6530;BME280;3298;42.688;23.366;2023-03-03T00:07:59;51862.41;;;-145.06;87.73
6530;BME280;3298;42.688;23.366;2023-03-03T00:10:27;51868.56;;;-145.06;87.56
6530;BME280;3298;42.688;23.366;2023-03-03T00:12:53;51874.69;;;-145.06;86.65
6530;BME280;3298;42.688;23.366;2023-03-03T00:15:22;51864.47;;;-145.06;86.08
6530;BME280;3298;42.688;23.366;2023-03-03T00:17:49;51854.22;;;-145.06;86.79
6530;BME280;3298;42.688;23.366;2023-03-03T00:20:35;51866.50;;;-145.06;87.07
6530;BME280;3298;42.688;23.366;2023-03-03T00:23:19;51874.69;;;-145.06;87.17
6530;BME280;3298;42.688;23.366;2023-03-03T00:25:49;51866.50;;;-145.06;87.14
6530;BME280;3298;42.688;23.366;2023-03-03T00:28:22;51864.47;;;-145.06;87.73
6530;BME280;3298;42.688;23.366;2023-03-03T00:30:50;51895.16;;;-145.06;88.32
6530;BME280;3298;42.688;23.366;2023-03-03T00:33:24;51874.69;;;-145.06;88.49
6530;BME280;3298;42.688;23.366;2023-03-03T00:35:55;51860.38;;;-145.06;89.64
6530;BME280;3298;42.688;23.366;2023-03-03T00:38:23;51878.78;;;-145.06;89.76
6530;BME280;3298;42.688;23.366;2023-03-03T00:40:49;51876.75;;;-145.06;89.61
6530;BME280;3298;42.688;23.366;2023-03-03T00:43:19;51876.75;;;-145.06;89.33
6530;BME280;3298;42.688;23.366;2023-03-03T00:45:48;51872.66;;;-145.06;90.05
6530;BME280;3298;42.688;23.366;2023-03-03T00:48:21;51880.81;;;-145.06;89.77
6530;BME280;3298;42.688;23.366;2023-03-03T00:50:50;51868.56;;;-145.06;90.00
6530;BME280;3298;42.688;23.366;2023-03-03T00:53:19;51872.66;;;-145.06;89.26
6530;BME280;3298;42.688;23.366;2023-03-03T00:55:48;51848.09;;;-145.06;89.58
6530;BME280;3298;42.688;23.366;2023-03-03T00:58:15;51864.47;;;-145.06;88.15
6530;BME280;3298;42.688;23.366;2023-03-03T01:00:43;51860.38;;;-145.06;88.57
6530;BME280;3298;42.688;23.366;2023-03-03T01:03:12;51856.28;;;-145.06;89.05
6530;BME280;3298;42.688;23.366;2023-03-03T01:05:39;51895.16;;;-145.06;89.22
6530;BME280;3298;42.688;23.366;2023-03-03T01:08:06;51913.56;;;-145.06;88.09
6530;BME280;3298;42.688;23.366;2023-03-03T01:10:38;51891.06;;;-145.06;88.29
6530;BME280;3298;42.688;23.366;2023-03-03T01:13:07;51864.47;;;-145.06;89.65
6530;BME280;3298;42.688;23.366;2023-03-03T01:15:34;51882.88;;;-145.06;90.76
6530;BME280;3298;42.688;23.366;2023-03-03T01:18:01;51889.00;;;-145.06;90.34
6530;BME280;3298;42.688;23.366;2023-03-03T01:20:28;51878.78;;;-145.06;90.96
6530;BME280;3298;42.688;23.366;2023-03-03T01:22:55;51870.59;;;-145.06;89.95
6530;BME280;3298;42.688;23.366;2023-03-03T01:25:22;51872.66;;;-145.06;88.61
6530;BME280;3298;42.688;23.366;2023-03-03T01:27:50;51870.59;;;-145.06;88.43
6530;BME280;3298;42.688;23.366;2023-03-03T01:30:17;51874.69;;;-145.06;90.19
6530;BME280;3298;42.688;23.366;2023-03-03T01:32:43;51876.75;;;-145.06;89.95
6530;BME280;3298;42.688;23.366;2023-03-03T01:35:10;51880.81;;;-145.06;90.26
6530;BME280;3298;42.688;23.366;2023-03-03T01:37:37;51913.56;;;-145.06;91.07
6530;BME280;3298;42.688;23.366;2023-03-03T01:40:05;51901.28;;;-145.06;91.18
6530;BME280;3298;42.688;23.366;2023-03-03T01:42:33;51901.28;;;-145.06;90.86
6530;BME280;3298;42.688;23.366;2023-03-03T01:45:19;51897.19;;;-145.06;91.10
6530;BME280;3298;42.688;23.366;2023-03-03T01:47:53;51870.59;;;-145.06;89.23
6530;BME280;3298;42.688;23.366;2023-03-03T01:50:38;51893.09;;;-145.06;89.89
6530;BME280;3298;42.688;23.366;2023-03-03T01:53:11;51872.66;;;-145.06;89.35
6530;BME280;3298;42.688;23.366;2023-03-03T01:55:40;51876.75;;;-145.06;89.20
6530;BME280;3298;42.688;23.366;2023-03-03T01:58:10;51880.81;;;-145.06;88.81
6530;BME280;3298;42.688;23.366;2023-03-03T02:00:41;51860.38;;;-145.06;87.56
6530;BME280;3298;42.688;23.366;2023-03-03T02:03:11;51858.31;;;-145.06;87.48
6530;BME280;3298;42.688;23.366;2023-03-03T02:05:38;51870.59;;;-145.06;87.32
6530;BME280;3298;42.688;23.366;2023-03-03T02:08:09;51862.41;;;-145.06;86.88
6530;BME280;3298;42.688;23.366;2023-03-03T02:10:37;51866.50;;;-145.06;86.79
6530;BME280;3298;42.688;23.366;2023-03-03T02:13:04;51817.38;;;-145.06;85.82
6530;BME280;3298;42.688;23.366;2023-03-03T02:15:32;51870.59;;;-145.06;85.16
6530;BME280;3298;42.688;23.366;2023-03-03T02:18:03;51858.31;;;-145.06;84.73
6530;BME280;3298;42.688;23.366;2023-03-03T02:20:37;51864.47;;;-145.06;85.09
6530;BME280;3298;42.688;23.366;2023-03-03T02:23:11;51850.13;;;-145.06;85.27
6530;BME280;3298;42.688;23.366;2023-03-03T02:25:48;51868.56;;;-145.06;87.00
6530;BME280;3298;42.688;23.366;2023-03-03T02:28:19;51864.47;;;-145.06;86.68
6530;BME280;3298;42.688;23.366;2023-03-03T02:30:46;51874.69;;;-145.06;86.03
6530;BME280;3298;42.688;23.366;2023-03-03T02:33:13;51852.19;;;-145.06;86.53
6530;BME280;3298;42.688;23.366;2023-03-03T02:35:40;51868.56;;;-145.06;86.03
6530;BME280;3298;42.688;23.366;2023-03-03T02:38:18;51884.91;;;-145.06;85.75
6530;BME280;3298;42.688;23.366;2023-03-03T02:40:54;51848.09;;;-145.06;85.42
6530;BME280;3298;42.688;23.366;2023-03-03T02:43:26;51876.75;;;-145.06;85.33
6530;BME280;3298;42.688;23.366;2023-03-03T02:45:54;51880.81;;;-145.06;85.38
6530;BME280;3298;42.688;23.366;2023-03-03T02:48:21;51872.66;;;-145.06;85.64
6530;BME280;3298;42.688;23.366;2023-03-03T02:50:48;51864.47;;;-145.06;86.43
6530;BME280;3298;42.688;23.366;2023-03-03T02:53:15;51880.81;;;-145.06;86.91
6530;BME280;3298;42.688;23.366;2023-03-03T02:55:41;51856.28;;;-145.06;87.81
6530;BME280;3298;42.688;23.366;2023-03-03T02:58:08;51884.91;;;-145.06;89.12
6530;BME280;3298;42.688;23.366;2023-03-03T03:00:36;51891.06;;;-145.06;88.36
6530;BME280;3298;42.688;23.366;2023-03-03T03:03:03;51880.81;;;-145.06;88.07
6530;BME280;3298;42.688;23.366;2023-03-03T03:05:30;51864.47;;;-145.06;88.22
6530;BME280;3298;42.688;23.366;2023-03-03T03:07:56;51891.06;;;-145.06;87.58
6530;BME280;3298;42.688;23.366;2023-03-03T03:10:23;51874.69;;;-145.06;88.03
6530;BME280;3298;42.688;23.366;2023-03-03T03:12:51;51870.59;;;-145.06;88.33
6530;BME280;3298;42.688;23.366;2023-03-03T03:15:17;51864.47;;;-145.06;88.43
6530;BME280;3298;42.688;23.366;2023-03-03T03:17:46;51872.66;;;-145.06;87.36
6530;BME280;3298;42.688;23.366;2023-03-03T03:20:12;51846.03;;;-145.06;88.28
6530;BME280;3298;42.688;23.366;2023-03-03T03:22:39;51868.56;;;-145.06;88.36
6530;BME280;3298;42.688;23.366;2023-03-03T03:25:07;51889.00;;;-145.06;88.61
6530;BME280;3298;42.688;23.366;2023-03-03T03:27:34;51856.28;;;-145.06;88.59
6530;BME280;3298;42.688;23.366;2023-03-03T03:30:00;51921.75;;;-145.06;89.06
6530;BME280;3298;42.688;23.366;2023-03-03T03:32:27;51893.09;;;-145.06;88.23
6530;BME280;3298;42.688;23.366;2023-03-03T03:34:55;51864.47;;;-145.06;87.41
6530;BME280;3298;42.688;23.366;2023-03-03T03:37:22;51872.66;;;-145.06;87.64
6530;BME280;3298;42.688;23.366;2023-03-03T03:39:49;51870.59;;;-145.06;89.53
6530;BME280;3298;42.688;23.366;2023-03-03T03:42:15;51868.56;;;-145.06;89.62
6530;BME280;3298;42.688;23.366;2023-03-03T03:44:42;51876.75;;;-145.06;89.61
6530;BME280;3298;42.688;23.366;2023-03-03T03:47:09;51882.88;;;-145.06;89.91
6530;BME280;3298;42.688;23.366;2023-03-03T03:49:36;51911.53;;;-145.06;89.92
6530;BME280;3298;42.688;23.366;2023-03-03T03:52:04;51870.59;;;-145.06;90.43
6530;BME280;3298;42.688;23.366;2023-03-03T03:54:31;51884.91;;;-145.06;91.62
6530;BME280;3298;42.688;23.366;2023-03-03T03:56:58;51891.06;;;-145.06;93.50
6530;BME280;3298;42.688;23.366;2023-03-03T03:59:25;51893.09;;;-145.06;93.20
6530;BME280;3298;42.688;23.366;2023-03-03T04:01:52;51901.28;;;-145.06;93.61
6530;BME280;3298;42.688;23.366;2023-03-03T04:04:19;51913.56;;;-145.06;95.50
6530;BME280;3298;42.688;23.366;2023-03-03T04:06:46;51882.88;;;-145.06;96.31
6530;BME280;3298;42.688;23.366;2023-03-03T04:09:15;51899.25;;;-145.06;97.24
6530;BME280;3298;42.688;23.366;2023-03-03T04:11:42;51913.56;;;-145.06;96.54
6530;BME280;3298;42.688;23.366;2023-03-03T04:14:08;51925.84;;;-145.06;96.55
6530;BME280;3298;42.688;23.366;2023-03-03T04:16:35;51909.47;;;-145.06;96.36
6530;BME280;3298;42.688;23.366;2023-03-03T04:19:02;51950.41;;;-145.06;97.21
6530;BME280;3298;42.688;23.366;2023-03-03T04:21:29;51925.84;;;-145.06;97.34
6530;BME280;3298;42.688;23.366;2023-03-03T04:23:56;51899.25;;;-145.06;97.36
6530;BME280;3298;42.688;23.366;2023-03-03T04:26:24;51909.47;;;-145.06;97.69
6530;BME280;3298;42.688;23.366;2023-03-03T04:28:51;51919.72;;;-145.06;97.59
6530;BME280;3298;42.688;23.366;2023-03-03T04:31:18;51921.75;;;-145.06;97.99
6530;BME280;3298;42.688;23.366;2023-03-03T04:33:45;51942.22;;;-145.06;98.50
6530;BME280;3298;42.688;23.366;2023-03-03T04:36:12;51921.75;;;-145.06;99.52
6530;BME280;3298;42.688;23.366;2023-03-03T04:38:38;51946.31;;;-145.06;99.73
6530;BME280;3298;42.688;23.366;2023-03-03T04:41:05;51938.13;;;-145.06;99.99
6530;BME280;3298;42.688;23.366;2023-03-03T04:43:33;51958.59;;;-145.06;100.00
6530;BME280;3298;42.688;23.366;2023-03-03T04:46:00;51925.84;;;-145.06;100.00
6530;BME280;3298;42.688;23.366;2023-03-03T04:48:27;51962.69;;;-145.06;100.00
6530;BME280;3298;42.688;23.366;2023-03-03T04:50:54;51970.88;;;-145.06;100.00
6530;BME280;3298;42.688;23.366;2023-03-03T04:53:21;51952.47;;;-145.06;100.00
6530;BME280;3298;42.688;23.366;2023-03-03T04:55:49;51966.78;;;-145.06;100.00
6530;BME280;3298;42.688;23.366;2023-03-03T04:58:16;51950.41;;;-145.06;100.00
6530;BME280;3298;42.688;23.366;2023-03-03T05:00:46;51960.66;;;-145.06;100.00
6530;BME280;3298;42.688;23.366;2023-03-03T05:03:13;51954.50;;;-145.06;100.00
6530;BME280;3298;42.688;23.366;2023-03-03T05:05:40;51950.41;;;-145.06;99.67
6530;BME280;3298;42.688;23.366;2023-03-03T05:08:07;51929.94;;;-145.06;100.00
6530;BME280;3298;42.688;23.366;2023-03-03T05:10:33;51929.94;;;-145.06;100.00
6530;BME280;3298;42.688;23.366;2023-03-03T05:13:01;51929.94;;;-145.06;100.00
6530;BME280;3298;42.688;23.366;2023-03-03T05:15:28;51987.25;;;-145.06;100.00
6530;BME280;3298;42.688;23.366;2023-03-03T05:17:56;51934.03;;;-145.06;99.18
6530;BME280;3298;42.688;23.366;2023-03-03T05:20:23;51946.31;;;-145.06;99.63
6530;BME280;3298;42.688;23.366;2023-03-03T05:22:50;51948.38;;;-145.06;99.09
6530;BME280;3298;42.688;23.366;2023-03-03T05:25:19;51929.94;;;-145.06;99.61
6530;BME280;3298;42.688;23.366;2023-03-03T05:27:45;51960.66;;;-145.06;99.93
6530;BME280;3298;42.688;23.366;2023-03-03T05:30:12;51940.19;;;-145.06;99.16
6530;BME280;3298;42.688;23.366;2023-03-03T05:32:39;51948.38;;;-145.06;99.07
6530;BME280;3298;42.688;23.366;2023-03-03T05:35:08;51919.72;;;-145.06;100.00
6530;BME280;3298;42.688;23.366;2023-03-03T05:37:35;51972.94;;;-145.06;99.39
6530;BME280;3298;42.688;23.366;2023-03-03T05:40:05;51962.69;;;-145.06;97.87
6530;BME280;3298;42.688;23.366;2023-03-03T05:42:32;51927.91;;;-145.06;97.87
6530;BME280;3298;42.688;23.366;2023-03-03T05:44:59;51950.41;;;-145.06;98.00
6530;BME280;3298;42.688;23.366;2023-03-03T05:47:25;51938.13;;;-145.06;96.24
6530;BME280;3298;42.688;23.366;2023-03-03T05:49:52;51921.75;;;-145.06;96.48
6530;BME280;3298;42.688;23.366;2023-03-03T05:52:20;51934.03;;;-145.06;97.61
6530;BME280;3298;42.688;23.366;2023-03-03T05:54:48;51944.28;;;-145.06;97.54
6530;BME280;3298;42.688;23.366;2023-03-03T05:57:15;51938.13;;;-145.06;94.89
6530;BME280;3298;42.688;23.366;2023-03-03T05:59:42;51932.00;;;-145.06;94.88
6530;BME280;3298;42.688;23.366;2023-03-03T06:02:09;51909.47;;;-145.06;94.31
6530;BME280;3298;42.688;23.366;2023-03-03T06:04:35;51905.38;;;-145.06;93.92
6530;BME280;3298;42.688;23.366;2023-03-03T06:07:02;51932.00;;;-145.06;94.38
6530;BME280;3298;42.688;23.366;2023-03-03T06:09:30;51913.56;;;-145.06;92.60
6530;BME280;3298;42.688;23.366;2023-03-03T06:11:57;51921.75;;;-145.06;93.03
6530;BME280;3298;42.688;23.366;2023-03-03T06:14:24;51891.06;;;-145.06;92.91
6530;BME280;3298;42.688;23.366;2023-03-03T06:16:51;51884.91;;;-145.06;93.03
6530;BME280;3298;42.688;23.366;2023-03-03T06:19:17;51929.94;;;-145.06;91.72
6530;BME280;3298;42.688;23.366;2023-03-03T06:21:44;51905.38;;;-145.06;90.99
6530;BME280;3298;42.688;23.366;2023-03-03T06:24:11;51905.38;;;-145.06;91.28
6530;BME280;3298;42.688;23.366;2023-03-03T06:26:39;51932.00;;;-145.06;92.27
6530;BME280;3298;42.688;23.366;2023-03-03T06:29:06;51891.06;;;-145.06;92.38
6530;BME280;3298;42.688;23.366;2023-03-03T06:31:33;51905.38;;;-145.06;92.48
6530;BME280;3298;42.688;23.366;2023-03-03T06:34:00;51897.19;;;-145.06;91.73
6530;BME280;3298;42.688;23.366;2023-03-03T06:36:26;51893.09;;;-145.06;91.18
6530;BME280;3298;42.688;23.366;2023-03-03T06:38:53;51909.47;;;-145.06;91.48
6530;BME280;3298;42.688;23.366;2023-03-03T06:41:20;51882.88;;;-145.06;91.07
6530;BME280;3298;42.688;23.366;2023-03-03T06:43:48;51903.34;;;-145.06;90.13
6530;BME280;3298;42.688;23.366;2023-03-03T06:46:15;51891.06;;;-145.06;90.55
6530;BME280;3298;42.688;23.366;2023-03-03T06:48:42;51889.00;;;-145.06;90.78
6530;BME280;3298;42.688;23.366;2023-03-03T06:51:19;51917.66;;;-145.06;92.94
6530;BME280;3298;42.688;23.366;2023-03-03T06:53:48;51897.19;;;-145.06;90.26
6530;BME280;3298;42.688;23.366;2023-03-03T06:56:16;51893.09;;;-145.06;91.80
6530;BME280;3298;42.688;23.366;2023-03-03T06:58:43;51903.34;;;-145.06;91.16
6530;BME280;3298;42.688;23.366;2023-03-03T07:01:15;51917.66;;;-145.06;89.71
6530;BME280;3298;42.688;23.366;2023-03-03T07:03:42;51886.97;;;-145.06;89.65
6530;BME280;3298;42.688;23.366;2023-03-03T07:06:16;51901.28;;;-145.06;90.30
6530;BME280;3298;42.688;23.366;2023-03-03T07:08:45;51903.34;;;-145.06;88.17
6530;BME280;3298;42.688;23.366;2023-03-03T07:11:16;51901.28;;;-145.06;86.74
6530;BME280;3298;42.688;23.366;2023-03-03T07:13:46;51884.91;;;-145.06;84.91
6530;BME280;3298;42.688;23.366;2023-03-03T07:16:15;51882.88;;;-145.06;86.32
6530;BME280;3298;42.688;23.366;2023-03-03T07:18:47;51886.97;;;-145.06;86.46
6530;BME280;3298;42.688;23.366;2023-03-03T07:21:18;51893.09;;;-145.06;86.32
6530;BME280;3298;42.688;23.366;2023-03-03T07:23:46;51872.66;;;-145.06;86.34
6530;BME280;3298;42.688;23.366;2023-03-03T07:26:16;51895.16;;;-145.06;85.92
6530;BME280;3298;42.688;23.366;2023-03-03T07:28:45;51874.69;;;-145.06;86.61
6530;BME280;3298;42.688;23.366;2023-03-03T07:31:33;51897.19;;;-145.06;85.86
6530;BME280;3298;42.688;23.366;2023-03-03T07:34:04;51893.09;;;-145.06;85.94
6530;BME280;3298;42.688;23.366;2023-03-03T07:36:40;51880.81;;;-145.06;83.89
6530;BME280;3298;42.688;23.366;2023-03-03T07:39:20;51874.69;;;-145.06;85.42
6530;BME280;3298;42.688;23.366;2023-03-03T07:41:50;51868.56;;;-145.06;85.05
6530;BME280;3298;42.688;23.366;2023-03-03T07:44:20;51878.78;;;-145.06;84.56
6530;BME280;3298;42.688;23.366;2023-03-03T07:46:49;51837.84;;;-145.06;82.46
6530;BME280;3298;42.688;23.366;2023-03-03T07:49:21;51852.19;;;-145.06;80.73
6530;BME280;3298;42.688;23.366;2023-03-03T07:51:53;51864.47;;;-145.06;82.29
6530;BME280;3298;42.688;23.366;2023-03-03T07:54:30;51878.78;;;-145.06;82.80
6530;BME280;3298;42.688;23.366;2023-03-03T07:57:11;51889.00;;;-145.06;84.10
6530;BME280;3298;42.688;23.366;2023-03-03T07:59:45;51860.38;;;-145.06;83.56
6530;BME280;3298;42.688;23.366;2023-03-03T08:02:32;51870.59;;;-145.06;81.30
6530;BME280;3298;42.688;23.366;2023-03-03T08:05:00;51839.91;;;-145.06;82.89
6530;BME280;3298;42.688;23.366;2023-03-03T08:07:29;51860.38;;;-145.06;81.46
6530;BME280;3298;42.688;23.366;2023-03-03T08:09:58;51882.88;;;-145.06;81.99
6530;BME280;3298;42.688;23.366;2023-03-03T08:12:32;51868.56;;;-145.06;81.37
6530;BME280;3298;42.688;23.366;2023-03-03T08:15:21;51876.75;;;-145.06;82.06
6530;BME280;3298;42.688;23.366;2023-03-03T08:17:51;51831.72;;;-145.06;83.21
6530;BME280;3298;42.688;23.366;2023-03-03T08:20:49;51876.75;;;-145.06;81.93
6530;BME280;3298;42.688;23.366;2023-03-03T08:23:17;51876.75;;;-145.06;81.81
6530;BME280;3298;42.688;23.366;2023-03-03T08:25:46;51880.81;;;-145.06;82.21
6530;BME280;3298;42.688;23.366;2023-03-03T08:28:14;51848.09;;;-145.06;82.90
6530;BME280;3298;42.688;23.366;2023-03-03T08:30:41;51848.09;;;-145.06;83.51
6530;BME280;3298;42.688;23.366;2023-03-03T08:33:10;51860.38;;;-145.06;83.76
6530;BME280;3298;42.688;23.366;2023-03-03T08:35:37;51850.13;;;-145.06;82.89
6530;BME280;3298;42.688;23.366;2023-03-03T08:38:04;51854.22;;;-145.06;82.40
6530;BME280;3298;42.688;23.366;2023-03-03T08:40:32;51860.38;;;-145.06;82.17
6530;BME280;3298;42.688;23.366;2023-03-03T08:42:58;51850.13;;;-145.06;83.11
6530;BME280;3298;42.688;23.366;2023-03-03T08:45:26;51862.41;;;-145.06;82.82
6530;BME280;3298;42.688;23.366;2023-03-03T08:47:53;51868.56;;;-145.06;82.28
6530;BME280;3298;42.688;23.366;2023-03-03T08:50:22;51872.66;;;-145.06;81.27
6530;BME280;3298;42.688;23.366;2023-03-03T08:52:49;51852.19;;;-145.06;80.81
6530;BME280;3298;42.688;23.366;2023-03-03T08:55:16;51870.59;;;-145.06;81.54
6530;BME280;3298;42.688;23.366;2023-03-03T08:57:43;51872.66;;;-145.06;80.51
6530;BME280;3298;42.688;23.366;2023-03-03T09:00:12;51821.47;;;-145.06;77.88
6530;BME280;3298;42.688;23.366;2023-03-03T09:02:39;51854.22;;;-145.06;78.42
6530;BME280;3298;42.688;23.366;2023-03-03T09:05:08;51889.00;;;-145.06;78.75
6530;BME280;3298;42.688;23.366;2023-03-03T09:07:37;51827.63;;;-145.06;75.92
6530;BME280;3298;42.688;23.366;2023-03-03T09:10:04;51846.03;;;-145.06;76.37
6530;BME280;3298;42.688;23.366;2023-03-03T09:12:34;51823.53;;;-145.06;75.67
6530;BME280;3298;42.688;23.366;2023-03-03T09:15:11;51852.19;;;-145.06;74.69
6530;BME280;3298;42.688;23.366;2023-03-03T09:17:39;51852.19;;;-145.06;73.93
6530;BME280;3298;42.688;23.366;2023-03-03T09:20:20;51827.63;;;-145.06;74.06
6530;BME280;3298;42.688;23.366;2023-03-03T09:22:49;51844.00;;;-145.06;75.30
6530;BME280;3298;42.688;23.366;2023-03-03T09:25:21;51846.03;;;-145.06;75.40
6530;BME280;3298;42.688;23.366;2023-03-03T09:27:51;51854.22;;;-145.06;76.83
6530;BME280;3298;42.688;23.366;2023-03-03T09:30:33;51837.84;;;-145.06;78.34
6530;BME280;3298;42.688;23.366;2023-03-03T09:33:18;51860.38;;;-145.06;77.44
6530;BME280;3298;42.688;23.366;2023-03-03T09:35:49;51868.56;;;-145.06;76.20
6530;BME280;3298;42.688;23.366;2023-03-03T09:38:24;51831.72;;;-145.06;74.24
6530;BME280;3298;42.688;23.366;2023-03-03T09:41:03;51854.22;;;-145.06;73.93
6530;BME280;3298;42.688;23.366;2023-03-03T09:43:36;51850.13;;;-145.06;74.69
6530;BME280;3298;42.688;23.366;2023-03-03T09:46:11;51815.34;;;-145.06;74.91
6530;BME280;3298;42.688;23.366;2023-03-03T09:48:52;51846.03;;;-145.06;73.11
6530;BME280;3298;42.688;23.366;2023-03-03T09:51:34;51850.13;;;-145.06;73.52
6530;BME280;3298;42.688;23.366;2023-03-03T09:54:17;51835.81;;;-145.06;71.76
6530;BME280;3298;42.688;23.366;2023-03-03T09:56:52;51831.72;;;-145.06;73.25
6530;BME280;3298;42.688;23.366;2023-03-03T09:59:34;51839.91;;;-145.06;72.61
6530;BME280;3298;42.688;23.366;2023-03-03T10:02:30;51819.44;;;-145.06;71.30
6530;BME280;3298;42.688;23.366;2023-03-03T10:05:16;51841.94;;;-145.06;70.25
6530;BME280;3298;42.688;23.366;2023-03-03T10:07:53;51805.09;;;-145.06;69.75
6530;BME280;3298;42.688;23.366;2023-03-03T10:10:37;51833.75;;;-145.06;71.37
6530;BME280;3298;42.688;23.366;2023-03-03T10:13:23;51827.63;;;-145.06;68.29
6530;BME280;3298;42.688;23.366;2023-03-03T10:16:03;51839.91;;;-145.06;68.16
6530;BME280;3298;42.688;23.366;2023-03-03T10:18:38;51817.38;;;-145.06;68.16
6530;BME280;3298;42.688;23.366;2023-03-03T10:21:10;51854.22;;;-145.06;67.96
6530;BME280;3298;42.688;23.366;2023-03-03T10:23:52;51856.28;;;-145.06;69.83
6530;BME280;3298;42.688;23.366;2023-03-03T10:29:23;51846.03;;;-145.06;70.28
6530;BME280;3298;42.688;23.366;2023-03-03T10:32:05;51844.00;;;-145.06;70.26
6530;BME280;3298;42.688;23.366;2023-03-03T10:34:54;51844.00;;;-145.06;69.88
6530;BME280;3298;42.688;23.366;2023-03-03T10:37:32;51831.72;;;-145.06;70.61
6530;BME280;3298;42.688;23.366;2023-03-03T10:40:16;51827.63;;;-145.06;70.77
6530;BME280;3298;42.688;23.366;2023-03-03T10:42:57;51827.63;;;-145.06;70.98
6530;BME280;3298;42.688;23.366;2023-03-03T10:45:49;51848.09;;;-145.06;71.27
6530;BME280;3298;42.688;23.366;2023-03-03T10:48:45;51841.94;;;-145.06;73.28
6530;BME280;3298;42.688;23.366;2023-03-03T10:51:21;51827.63;;;-145.06;72.18
6530;BME280;3298;42.688;23.366;2023-03-03T10:53:59;51856.28;;;-145.06;74.00
6530;BME280;3298;42.688;23.366;2023-03-03T10:56:39;51856.28;;;-145.06;73.21
6530;BME280;3298;42.688;23.366;2023-03-03T10:59:28;51837.84;;;-145.06;73.39
6530;BME280;3298;42.688;23.366;2023-03-03T11:02:02;51823.53;;;-145.06;73.83
6530;BME280;3298;42.688;23.366;2023-03-03T11:04:43;51835.81;;;-145.06;73.16
6530;BME280;3298;42.688;23.366;2023-03-03T11:07:18;51821.47;;;-145.06;72.98
6530;BME280;3298;42.688;23.366;2023-03-03T11:10:13;51833.75;;;-145.06;74.08
6530;BME280;3298;42.688;23.366;2023-03-03T11:12:51;51829.66;;;-145.06;72.56
6530;BME280;3298;42.688;23.366;2023-03-03T11:15:38;51823.53;;;-145.06;72.53
6530;BME280;3298;42.688;23.366;2023-03-03T11:18:20;51841.94;;;-145.06;72.16
6530;BME280;3298;42.688;23.366;2023-03-03T11:20:54;51823.53;;;-145.06;73.64
6530;BME280;3298;42.688;23.366;2023-03-03T11:23:49;51839.91;;;-145.06;74.19
6530;BME280;3298;42.688;23.366;2023-03-03T11:26:26;51827.63;;;-145.06;73.39
6530;BME280;3298;42.688;23.366;2023-03-03T11:29:11;51833.75;;;-145.06;72.06
6530;BME280;3298;42.688;23.366;2023-03-03T11:31:47;51848.09;;;-145.06;72.11
6530;BME280;3298;42.688;23.366;2023-03-03T11:34:28;51878.78;;;-145.06;75.37
6530;BME280;3298;42.688;23.366;2023-03-03T11:37:03;51846.03;;;-145.06;73.10
6530;BME280;3298;42.688;23.366;2023-03-03T11:39:32;51833.75;;;-145.06;74.27
6530;BME280;3298;42.688;23.366;2023-03-03T11:42:06;51813.28;;;-145.06;73.49
6530;BME280;3298;42.688;23.366;2023-03-03T11:44:36;51850.13;;;-145.06;74.26
6530;BME280;3298;42.688;23.366;2023-03-03T11:47:11;51860.38;;;-145.06;75.58
6530;BME280;3298;42.688;23.366;2023-03-03T11:49:47;51831.72;;;-145.06;76.17
6530;BME280;3298;42.688;23.366;2023-03-03T11:52:28;51835.81;;;-145.06;75.18
6530;BME280;3298;42.688;23.366;2023-03-03T11:55:01;51839.91;;;-145.06;75.71
6530;BME280;3298;42.688;23.366;2023-03-03T11:57:35;51829.66;;;-145.06;76.91
6530;BME280;3298;42.688;23.366;2023-03-03T12:00:17;51848.09;;;-145.06;78.11
6530;BME280;3298;42.688;23.366;2023-03-03T12:05:56;51839.91;;;-145.06;76.65
6530;BME280;3298;42.688;23.366;2023-03-03T12:08:58;51844.00;;;-145.06;76.53
6530;BME280;3298;42.688;23.366;2023-03-03T12:11:32;51860.38;;;-145.06;77.26
6530;BME280;3298;42.688;23.366;2023-03-03T12:14:09;51860.38;;;-145.06;76.84
6530;BME280;3298;42.688;23.366;2023-03-03T12:16:46;51882.88;;;-145.06;78.71
6530;BME280;3298;42.688;23.366;2023-03-03T12:19:27;51841.94;;;-145.06;76.37
6530;BME280;3298;42.688;23.366;2023-03-03T12:22:23;51860.38;;;-145.06;77.07
6530;BME280;3298;42.688;23.366;2023-03-03T12:25:20;51868.56;;;-145.06;76.36
6530;BME280;3298;42.688;23.366;2023-03-03T12:27:53;51862.41;;;-145.06;75.89
6530;BME280;3298;42.688;23.366;2023-03-03T12:30:41;51860.38;;;-145.06;74.75
6530;BME280;3298;42.688;23.366;2023-03-03T12:33:21;51835.81;;;-145.06;76.36
6530;BME280;3298;42.688;23.366;2023-03-03T12:36:03;51844.00;;;-145.06;77.70
6530;BME280;3298;42.688;23.366;2023-03-03T12:38:37;51868.56;;;-145.06;77.57
6530;BME280;3298;42.688;23.366;2023-03-03T12:41:11;51868.56;;;-145.06;79.37
6530;BME280;3298;42.688;23.366;2023-03-03T12:43:47;51860.38;;;-145.06;80.00
6530;BME280;3298;42.688;23.366;2023-03-03T12:46:22;51872.66;;;-145.06;78.01
6530;BME280;3298;42.688;23.366;2023-03-03T12:48:51;51856.28;;;-145.06;77.70
6530;BME280;3298;42.688;23.366;2023-03-03T12:51:27;51860.38;;;-145.06;81.01
6530;BME280;3298;42.688;23.366;2023-03-03T12:54:09;51870.59;;;-145.06;81.90
6530;BME280;3298;42.688;23.366;2023-03-03T12:56:44;51844.00;;;-145.06;81.20
6530;BME280;3298;42.688;23.366;2023-03-03T12:59:20;51868.56;;;-145.06;81.84
6530;BME280;3298;42.688;23.366;2023-03-03T13:02:10;51866.50;;;-145.06;81.92
6530;BME280;3298;42.688;23.366;2023-03-03T13:04:49;51915.63;;;-145.06;82.85
6530;BME280;3298;42.688;23.366;2023-03-03T13:07:23;51876.75;;;-145.06;84.45
6530;BME280;3298;42.688;23.366;2023-03-03T13:10:03;51886.97;;;-145.06;84.27
6530;BME280;3298;42.688;23.366;2023-03-03T13:12:39;51864.47;;;-145.06;84.52
6530;BME280;3298;42.688;23.366;2023-03-03T13:15:15;51899.25;;;-145.06;87.49
6530;BME280;3298;42.688;23.366;2023-03-03T13:17:55;51899.25;;;-145.06;86.06
6530;BME280;3298;42.688;23.366;2023-03-03T13:20:32;51903.34;;;-145.06;87.74